createdAt,value
2022-10-06T00:05:16.428Z,14.84
2022-10-06T00:10:40.436Z,14.75
2022-10-06T00:16:08.526Z,14.71
2022-10-06T00:21:33.439Z,14.67
2022-10-06T00:26:58.455Z,14.64
2022-10-06T00:32:26.841Z,14.61
2022-10-06T00:37:51.457Z,14.71
2022-10-06T00:43:17.488Z,14.73
2022-10-06T00:48:45.478Z,14.74
2022-10-06T00:54:11.454Z,14.73
2022-10-06T00:59:36.832Z,14.69
2022-10-06T01:05:10.464Z,14.59
2022-10-06T01:10:35.499Z,14.53
2022-10-06T01:16:12.567Z,14.47
2022-10-06T01:21:45.644Z,14.44
2022-10-06T01:27:13.490Z,14.47
2022-10-06T01:32:43.678Z,14.47
2022-10-06T01:38:07.474Z,14.50
2022-10-06T01:43:35.469Z,14.45
2022-10-06T01:48:59.694Z,14.56
2022-10-06T01:54:26.801Z,14.60
2022-10-06T01:59:54.954Z,14.67
2022-10-06T02:05:21.489Z,14.68
2022-10-06T02:10:47.489Z,14.69
2022-10-06T02:16:20.729Z,14.66
2022-10-06T02:21:47.833Z,14.55
2022-10-06T02:27:13.502Z,14.46
2022-10-06T02:32:49.501Z,14.41
2022-10-06T02:38:14.537Z,14.35
2022-10-06T02:43:39.533Z,14.31
2022-10-06T02:49:08.845Z,14.26
2022-10-06T02:54:32.515Z,14.17
2022-10-06T02:59:57.986Z,14.09
2022-10-06T03:05:33.541Z,14.09
2022-10-06T03:10:58.573Z,14.09
2022-10-06T03:16:30.579Z,14.11
2022-10-06T03:21:58.840Z,14.10
2022-10-06T03:27:32.616Z,14.07
2022-10-06T03:32:57.637Z,14.07
2022-10-06T03:38:24.612Z,14.09
2022-10-06T03:43:51.609Z,14.10
2022-10-06T03:49:16.533Z,14.10
2022-10-06T03:54:44.580Z,14.12
2022-10-06T04:00:09.594Z,14.12
2022-10-06T04:05:35.620Z,14.20
2022-10-06T04:11:02.603Z,14.30
2022-10-06T04:16:29.632Z,14.51
2022-10-06T04:21:56.597Z,14.59
2022-10-06T04:27:37.582Z,14.67
2022-10-06T04:33:04.631Z,14.73
2022-10-06T04:38:29.853Z,14.77
2022-10-06T04:44:00.585Z,14.90
2022-10-06T04:49:26.034Z,14.63
2022-10-06T04:54:50.571Z,14.24
2022-10-06T05:00:33.790Z,13.86
2022-10-06T05:05:57.621Z,13.56
2022-10-06T05:11:25.782Z,13.24
2022-10-06T05:16:53.715Z,12.98
2022-10-06T05:22:19.642Z,12.69
2022-10-06T05:27:44.803Z,12.47
2022-10-06T05:33:11.590Z,12.31
2022-10-06T05:38:29.895Z,12.20
2022-10-06T05:43:55.663Z,12.11
2022-10-06T05:49:24.629Z,12.01
2022-10-06T05:54:52.645Z,11.91
2022-10-06T06:00:18.644Z,11.82
2022-10-06T06:05:45.611Z,11.72
2022-10-06T06:11:19.621Z,11.66
2022-10-06T06:16:46.843Z,11.66
2022-10-06T06:22:13.667Z,11.61
2022-10-06T06:27:39.656Z,11.64
2022-10-06T06:33:06.669Z,11.65
2022-10-06T06:38:34.635Z,11.69
2022-10-06T06:44:00.796Z,11.74
2022-10-06T06:49:29.671Z,11.84
2022-10-06T06:54:57.078Z,11.88
2022-10-06T07:00:23.686Z,11.92
2022-10-06T07:05:47.677Z,12.02
2022-10-06T07:11:23.661Z,12.02
2022-10-06T07:17:01.663Z,12.06
2022-10-06T07:22:43.699Z,12.05
2022-10-06T07:28:13.722Z,11.96
2022-10-06T07:33:39.692Z,11.85
2022-10-06T07:39:04.708Z,11.96
2022-10-06T07:44:32.728Z,12.14
2022-10-06T07:49:57.704Z,12.38
2022-10-06T07:55:23.748Z,12.59
2022-10-06T08:01:03.681Z,12.74
2022-10-06T08:06:29.824Z,12.90
2022-10-06T08:11:55.694Z,13.03
2022-10-06T08:17:23.749Z,13.11
2022-10-06T08:22:47.722Z,13.22
2022-10-06T08:28:12.823Z,13.27
2022-10-06T08:33:44.743Z,13.45
2022-10-06T08:39:09.823Z,13.43
2022-10-06T08:44:43.755Z,13.52
2022-10-06T08:50:16.759Z,13.60
2022-10-06T08:55:49.725Z,13.76
2022-10-06T09:01:25.799Z,13.76
2022-10-06T09:07:11.786Z,13.87
2022-10-06T09:12:42.065Z,13.91
2022-10-06T09:18:12.721Z,13.95
2022-10-06T09:23:56.757Z,14.02
2022-10-06T09:29:20.735Z,14.09
2022-10-06T09:34:51.746Z,14.18
2022-10-06T09:40:44.076Z,14.32
2022-10-06T09:46:27.752Z,14.32
2022-10-06T09:51:51.787Z,14.42
2022-10-06T09:57:26.016Z,14.46
2022-10-06T10:02:52.089Z,14.50
2022-10-06T10:08:29.816Z,14.66
2022-10-06T10:13:59.834Z,14.83
2022-10-06T10:19:39.796Z,14.93
2022-10-06T10:25:15.985Z,14.93
2022-10-06T10:30:53.803Z,15.03
2022-10-06T10:36:20.792Z,15.12
2022-10-06T10:41:53.811Z,15.07
2022-10-06T10:47:32.815Z,15.22
2022-10-06T10:53:00.822Z,15.27
2022-10-06T10:58:35.911Z,15.30
2022-10-06T11:04:07.807Z,15.32
2022-10-06T11:09:35.791Z,15.41
2022-10-06T11:15:05.822Z,15.41
2022-10-06T11:20:55.807Z,15.37
2022-10-06T11:26:34.843Z,15.45
2022-10-06T11:32:08.951Z,15.51
2022-10-06T11:37:45.821Z,15.54
2022-10-06T11:43:17.865Z,15.68
2022-10-06T11:48:42.848Z,15.49
2022-10-06T11:54:09.834Z,15.61
2022-10-06T11:59:37.863Z,15.72
2022-10-06T12:05:56.316Z,15.96
2022-10-06T12:11:51.863Z,16.01
2022-10-06T12:17:21.832Z,16.10
2022-10-06T12:22:53.847Z,16.03
2022-10-06T12:28:32.897Z,16.16
2022-10-06T12:34:04.855Z,16.25
2022-10-06T12:39:31.896Z,16.42
2022-10-06T12:45:02.878Z,16.51
2022-10-06T12:50:33.905Z,16.60
2022-10-06T12:56:03.895Z,16.70
2022-10-06T13:01:32.891Z,16.82
2022-10-06T13:07:08.404Z,16.99
2022-10-06T13:12:40.954Z,17.14
2022-10-06T13:18:27.901Z,17.19
2022-10-06T13:23:55.890Z,17.08
2022-10-06T13:29:20.910Z,17.12
2022-10-06T13:34:54.873Z,17.13
2022-10-06T13:40:44.435Z,17.27
2022-10-06T13:46:08.980Z,17.39
2022-10-06T13:51:39.951Z,17.25
2022-10-06T13:57:05.076Z,17.28
2022-10-06T14:02:33.072Z,17.35
2022-10-06T14:08:00.881Z,17.28
2022-10-06T14:13:30.905Z,17.49
2022-10-06T14:19:02.927Z,17.54
2022-10-06T14:24:41.003Z,17.62
2022-10-06T14:30:05.937Z,17.77
2022-10-06T14:35:29.966Z,18.00
2022-10-06T14:40:57.008Z,18.15
2022-10-06T14:46:24.998Z,18.10
2022-10-06T14:51:51.913Z,18.20
2022-10-06T14:57:19.954Z,18.02
2022-10-06T15:02:45.019Z,18.01
2022-10-06T15:08:20.966Z,18.20
2022-10-06T15:13:48.966Z,18.27
2022-10-06T15:19:16.115Z,18.28
2022-10-06T15:24:40.944Z,18.29
2022-10-06T15:30:07.970Z,18.38
2022-10-06T15:35:33.017Z,18.20
2022-10-06T15:40:56.967Z,18.22
2022-10-06T15:46:25.027Z,18.18
2022-10-06T15:51:53.964Z,17.94
2022-10-06T15:57:21.590Z,17.72
2022-10-06T16:02:49.100Z,17.59
2022-10-06T16:08:14.029Z,17.48
2022-10-06T16:13:39.171Z,17.34
2022-10-06T16:19:08.283Z,17.02
2022-10-06T16:24:33.006Z,16.87
2022-10-06T16:29:58.025Z,16.61
2022-10-06T16:35:32.010Z,16.55
2022-10-06T16:41:03.004Z,16.35
2022-10-06T16:46:31.391Z,16.12
2022-10-06T16:51:59.021Z,15.89
2022-10-06T16:57:23.007Z,15.57
2022-10-06T17:02:48.092Z,15.11
2022-10-06T17:08:24.018Z,14.86
2022-10-06T17:13:54.017Z,14.64
2022-10-06T17:19:19.083Z,14.40
2022-10-06T17:24:47.069Z,14.10
2022-10-06T17:30:12.106Z,13.66
2022-10-06T17:35:38.026Z,13.55
2022-10-06T17:41:05.112Z,13.37
2022-10-06T17:46:47.023Z,13.23
2022-10-06T17:52:14.048Z,13.05
2022-10-06T17:57:42.073Z,12.85
2022-10-06T18:03:07.079Z,12.69
2022-10-06T18:08:33.477Z,12.37
2022-10-06T18:14:05.105Z,12.29
2022-10-06T18:19:33.518Z,12.15
2022-10-06T18:24:59.327Z,12.02
2022-10-06T18:30:29.357Z,11.85
2022-10-06T18:36:16.330Z,11.75
2022-10-06T18:41:43.401Z,11.61
2022-10-06T18:47:23.059Z,11.47
2022-10-06T18:52:49.109Z,11.36
2022-10-06T18:58:14.247Z,11.25
2022-10-06T19:03:41.097Z,11.08
2022-10-06T19:09:11.149Z,10.93
2022-10-06T19:14:39.136Z,10.77
2022-10-06T19:20:07.099Z,10.67
2022-10-06T19:25:33.113Z,10.63
2022-10-06T19:31:06.352Z,10.58
2022-10-06T19:36:34.125Z,10.54
2022-10-06T19:42:12.144Z,10.51
2022-10-06T19:47:37.184Z,10.45
2022-10-06T19:53:05.100Z,10.43
2022-10-06T19:58:29.131Z,10.40
2022-10-06T20:03:54.160Z,10.36
2022-10-06T20:09:21.146Z,10.31
2022-10-06T20:14:46.274Z,10.28
2022-10-06T20:20:11.191Z,10.27
2022-10-06T20:25:33.114Z,10.32
2022-10-06T20:31:00.225Z,10.34
2022-10-06T20:36:27.150Z,10.31
2022-10-06T20:41:55.155Z,10.21
2022-10-06T20:47:20.238Z,9.96
2022-10-06T20:52:45.139Z,9.76
2022-10-06T20:58:12.170Z,9.66
2022-10-06T21:03:37.163Z,9.53
2022-10-06T21:09:02.168Z,9.43
2022-10-06T21:14:30.209Z,9.34
2022-10-06T21:19:54.190Z,9.24
2022-10-06T21:25:19.183Z,9.14
2022-10-06T21:30:51.625Z,9.07
2022-10-06T21:36:16.178Z,9.01
2022-10-06T21:41:44.198Z,8.93
2022-10-06T21:47:12.393Z,8.86
2022-10-06T21:52:36.235Z,8.77
2022-10-06T21:58:01.555Z,8.73
2022-10-06T22:03:28.206Z,8.68
2022-10-06T22:08:54.257Z,8.61
2022-10-06T22:14:23.480Z,8.52
2022-10-06T22:19:50.207Z,8.44
2022-10-06T22:25:14.227Z,8.39
2022-10-06T22:30:39.231Z,8.30
2022-10-06T22:36:13.240Z,8.21
2022-10-06T22:41:38.224Z,8.14
2022-10-06T22:47:02.253Z,8.08
2022-10-06T22:52:30.238Z,8.04
2022-10-06T22:57:54.232Z,8.01
2022-10-06T23:03:19.317Z,7.99
2022-10-06T23:08:46.247Z,7.98
2022-10-06T23:14:11.251Z,7.97
2022-10-06T23:19:35.674Z,7.94
2022-10-06T23:25:03.268Z,7.93
2022-10-06T23:30:28.250Z,7.87
2022-10-06T23:35:59.243Z,7.84
2022-10-06T23:41:27.248Z,7.78
2022-10-06T23:46:51.274Z,7.72
2022-10-06T23:52:16.267Z,7.68
2022-10-06T23:57:44.485Z,7.66
